sensor_id;sensor_type;location;lat;lon;timestamp;P1;durP1;ratioP1;P2;durP2;ratioP2
35126;SDS011;21300;52.006;5.798;2023-10-09T00:00:50;12.05;;;6.20;;
35126;SDS011;21300;52.006;5.798;2023-10-09T00:03:19;13.40;;;6.25;;
35126;SDS011;21300;52.006;5.798;2023-10-09T00:05:49;12.00;;;6.30;;
35126;SDS011;21300;52.006;5.798;2023-10-09T00:08:18;12.25;;;6.63;;
35126;SDS011;21300;52.006;5.798;2023-10-09T00:10:47;10.95;;;6.20;;
35126;SDS011;21300;52.006;5.798;2023-10-09T00:13:17;14.45;;;6.13;;
35126;SDS011;21300;52.006;5.798;2023-10-09T00:15:57;16.40;;;6.45;;
35126;SDS011;21300;52.006;5.798;2023-10-09T00:18:33;12.20;;;5.68;;
35126;SDS011;21300;52.006;5.798;2023-10-09T00:20:59;12.68;;;7.18;;
35126;SDS011;21300;52.006;5.798;2023-10-09T00:23:48;16.13;;;7.78;;
35126;SDS011;21300;52.006;5.798;2023-10-09T00:26:20;13.77;;;6.25;;
35126;SDS011;21300;52.006;5.798;2023-10-09T00:28:46;14.50;;;6.93;;
35126;SDS011;21300;52.006;5.798;2023-10-09T00:31:15;11.68;;;6.95;;
35126;SDS011;21300;52.006;5.798;2023-10-09T00:33:50;12.98;;;7.00;;
35126;SDS011;21300;52.006;5.798;2023-10-09T00:36:17;15.00;;;7.70;;
35126;SDS011;21300;52.006;5.798;2023-10-09T00:38:52;17.63;;;8.88;;
35126;SDS011;21300;52.006;5.798;2023-10-09T00:41:17;14.02;;;7.65;;
35126;SDS011;21300;52.006;5.798;2023-10-09T00:43:49;15.10;;;7.05;;
35126;SDS011;21300;52.006;5.798;2023-10-09T00:46:17;14.32;;;7.45;;
35126;SDS011;21300;52.006;5.798;2023-10-09T00:48:44;12.20;;;6.53;;
35126;SDS011;21300;52.006;5.798;2023-10-09T00:51:13;11.85;;;7.03;;
35126;SDS011;21300;52.006;5.798;2023-10-09T00:53:44;16.08;;;7.20;;
35126;SDS011;21300;52.006;5.798;2023-10-09T00:56:21;15.18;;;7.72;;
35126;SDS011;21300;52.006;5.798;2023-10-09T01:01:34;17.15;;;7.55;;
35126;SDS011;21300;52.006;5.798;2023-10-09T01:04:05;14.75;;;7.35;;
35126;SDS011;21300;52.006;5.798;2023-10-09T01:06:45;16.55;;;8.45;;
35126;SDS011;21300;52.006;5.798;2023-10-09T01:09:30;16.38;;;7.72;;
35126;SDS011;21300;52.006;5.798;2023-10-09T01:12:02;16.25;;;8.02;;
35126;SDS011;21300;52.006;5.798;2023-10-09T01:14:29;17.73;;;8.75;;
35126;SDS011;21300;52.006;5.798;2023-10-09T01:16:56;16.02;;;7.97;;
35126;SDS011;21300;52.006;5.798;2023-10-09T01:19:22;13.90;;;7.85;;
35126;SDS011;21300;52.006;5.798;2023-10-09T01:21:56;16.23;;;8.10;;
35126;SDS011;21300;52.006;5.798;2023-10-09T01:24:29;16.05;;;8.32;;
35126;SDS011;21300;52.006;5.798;2023-10-09T01:26:57;15.18;;;7.20;;
35126;SDS011;21300;52.006;5.798;2023-10-09T01:29:24;15.40;;;7.80;;
35126;SDS011;21300;52.006;5.798;2023-10-09T01:31:56;14.07;;;7.47;;
35126;SDS011;21300;52.006;5.798;2023-10-09T01:34:26;16.75;;;8.38;;
35126;SDS011;21300;52.006;5.798;2023-10-09T01:37:10;15.05;;;7.82;;
35126;SDS011;21300;52.006;5.798;2023-10-09T01:39:43;16.83;;;7.93;;
35126;SDS011;21300;52.006;5.798;2023-10-09T01:42:13;17.17;;;8.25;;
35126;SDS011;21300;52.006;5.798;2023-10-09T01:44:49;15.95;;;8.02;;
35126;SDS011;21300;52.006;5.798;2023-10-09T01:47:16;15.13;;;8.88;;
35126;SDS011;21300;52.006;5.798;2023-10-09T01:49:44;15.60;;;7.95;;
35126;SDS011;21300;52.006;5.798;2023-10-09T01:52:13;15.10;;;7.88;;
35126;SDS011;21300;52.006;5.798;2023-10-09T01:54:44;14.25;;;7.65;;
35126;SDS011;21300;52.006;5.798;2023-10-09T01:57:14;17.27;;;8.15;;
35126;SDS011;21300;52.006;5.798;2023-10-09T01:59:42;15.15;;;7.75;;
35126;SDS011;21300;52.006;5.798;2023-10-09T02:02:12;15.45;;;8.10;;
35126;SDS011;21300;52.006;5.798;2023-10-09T02:04:41;19.38;;;8.30;;
35126;SDS011;21300;52.006;5.798;2023-10-09T02:07:06;17.15;;;9.13;;
35126;SDS011;21300;52.006;5.798;2023-10-09T02:09:35;16.25;;;8.25;;
35126;SDS011;21300;52.006;5.798;2023-10-09T02:12:09;16.03;;;7.27;;
35126;SDS011;21300;52.006;5.798;2023-10-09T02:14:35;18.20;;;8.65;;
35126;SDS011;21300;52.006;5.798;2023-10-09T02:17:06;15.57;;;7.65;;
35126;SDS011;21300;52.006;5.798;2023-10-09T02:19:35;13.75;;;7.22;;
35126;SDS011;21300;52.006;5.798;2023-10-09T02:22:01;17.50;;;8.82;;
35126;SDS011;21300;52.006;5.798;2023-10-09T02:24:39;13.15;;;8.00;;
35126;SDS011;21300;52.006;5.798;2023-10-09T02:27:15;13.98;;;7.70;;
35126;SDS011;21300;52.006;5.798;2023-10-09T02:29:48;18.00;;;8.05;;
35126;SDS011;21300;52.006;5.798;2023-10-09T02:32:13;14.07;;;7.93;;
35126;SDS011;21300;52.006;5.798;2023-10-09T02:34:41;12.98;;;7.70;;
35126;SDS011;21300;52.006;5.798;2023-10-09T02:37:11;15.80;;;8.75;;
35126;SDS011;21300;52.006;5.798;2023-10-09T02:39:38;15.93;;;8.43;;
35126;SDS011;21300;52.006;5.798;2023-10-09T02:42:13;15.35;;;8.27;;
35126;SDS011;21300;52.006;5.798;2023-10-09T02:44:38;15.02;;;8.10;;
35126;SDS011;21300;52.006;5.798;2023-10-09T02:47:05;13.18;;;8.25;;
35126;SDS011;21300;52.006;5.798;2023-10-09T02:49:37;16.13;;;7.80;;
35126;SDS011;21300;52.006;5.798;2023-10-09T02:52:04;16.58;;;9.20;;
35126;SDS011;21300;52.006;5.798;2023-10-09T02:54:32;13.57;;;7.32;;
35126;SDS011;21300;52.006;5.798;2023-10-09T02:57:06;14.40;;;7.88;;
35126;SDS011;21300;52.006;5.798;2023-10-09T02:59:33;14.90;;;9.15;;
35126;SDS011;21300;52.006;5.798;2023-10-09T03:02:06;11.48;;;7.50;;
35126;SDS011;21300;52.006;5.798;2023-10-09T03:04:32;16.23;;;8.82;;
35126;SDS011;21300;52.006;5.798;2023-10-09T03:06:58;15.45;;;8.52;;
35126;SDS011;21300;52.006;5.798;2023-10-09T03:09:25;16.05;;;9.52;;
35126;SDS011;21300;52.006;5.798;2023-10-09T03:11:54;17.13;;;8.60;;
35126;SDS011;21300;52.006;5.798;2023-10-09T03:14:27;15.82;;;8.18;;
35126;SDS011;21300;52.006;5.798;2023-10-09T03:16:54;15.45;;;8.50;;
35126;SDS011;21300;52.006;5.798;2023-10-09T03:19:25;12.13;;;7.80;;
35126;SDS011;21300;52.006;5.798;2023-10-09T03:21:52;16.42;;;8.55;;
35126;SDS011;21300;52.006;5.798;2023-10-09T03:24:17;15.25;;;8.20;;
35126;SDS011;21300;52.006;5.798;2023-10-09T03:26:47;18.88;;;8.73;;
35126;SDS011;21300;52.006;5.798;2023-10-09T03:29:14;12.35;;;7.78;;
35126;SDS011;21300;52.006;5.798;2023-10-09T03:31:44;16.00;;;8.05;;
35126;SDS011;21300;52.006;5.798;2023-10-09T03:34:11;15.02;;;7.88;;
35126;SDS011;21300;52.006;5.798;2023-10-09T03:36:37;15.93;;;9.15;;
35126;SDS011;21300;52.006;5.798;2023-10-09T03:39:06;14.82;;;9.00;;
35126;SDS011;21300;52.006;5.798;2023-10-09T03:41:51;16.95;;;9.00;;
35126;SDS011;21300;52.006;5.798;2023-10-09T03:44:19;13.68;;;8.45;;
35126;SDS011;21300;52.006;5.798;2023-10-09T03:46:45;15.27;;;8.68;;
35126;SDS011;21300;52.006;5.798;2023-10-09T03:49:11;18.25;;;9.52;;
35126;SDS011;21300;52.006;5.798;2023-10-09T03:51:38;17.90;;;9.23;;
35126;SDS011;21300;52.006;5.798;2023-10-09T03:54:04;14.68;;;8.00;;
35126;SDS011;21300;52.006;5.798;2023-10-09T03:56:34;14.48;;;8.75;;
35126;SDS011;21300;52.006;5.798;2023-10-09T03:59:00;14.35;;;8.73;;
35126;SDS011;21300;52.006;5.798;2023-10-09T04:01:26;14.93;;;8.82;;
35126;SDS011;21300;52.006;5.798;2023-10-09T04:04:03;12.77;;;7.88;;
35126;SDS011;21300;52.006;5.798;2023-10-09T04:06:31;17.33;;;8.20;;
35126;SDS011;21300;52.006;5.798;2023-10-09T04:09:01;15.43;;;8.35;;
35126;SDS011;21300;52.006;5.798;2023-10-09T04:11:53;11.60;;;7.43;;
35126;SDS011;21300;52.006;5.798;2023-10-09T04:14:42;15.55;;;8.70;;
35126;SDS011;21300;52.006;5.798;2023-10-09T04:17:22;13.60;;;8.02;;
35126;SDS011;21300;52.006;5.798;2023-10-09T04:19:48;11.40;;;7.75;;
35126;SDS011;21300;52.006;5.798;2023-10-09T04:22:34;11.70;;;7.13;;
35126;SDS011;21300;52.006;5.798;2023-10-09T04:25:05;13.05;;;7.65;;
35126;SDS011;21300;52.006;5.798;2023-10-09T04:27:40;11.68;;;7.15;;
35126;SDS011;21300;52.006;5.798;2023-10-09T04:30:06;13.25;;;6.90;;
35126;SDS011;21300;52.006;5.798;2023-10-09T04:32:33;11.68;;;7.63;;
35126;SDS011;21300;52.006;5.798;2023-10-09T04:35:00;13.18;;;7.97;;
35126;SDS011;21300;52.006;5.798;2023-10-09T04:37:44;14.98;;;8.18;;
35126;SDS011;21300;52.006;5.798;2023-10-09T04:40:17;13.15;;;7.05;;
35126;SDS011;21300;52.006;5.798;2023-10-09T04:43:06;15.48;;;8.18;;
35126;SDS011;21300;52.006;5.798;2023-10-09T04:45:36;13.15;;;7.53;;
35126;SDS011;21300;52.006;5.798;2023-10-09T04:48:22;11.43;;;6.65;;
35126;SDS011;21300;52.006;5.798;2023-10-09T04:51:03;14.07;;;7.63;;
35126;SDS011;21300;52.006;5.798;2023-10-09T04:54:00;10.93;;;6.53;;
35126;SDS011;21300;52.006;5.798;2023-10-09T04:56:38;13.50;;;7.10;;
35126;SDS011;21300;52.006;5.798;2023-10-09T04:59:20;11.73;;;7.57;;
35126;SDS011;21300;52.006;5.798;2023-10-09T05:01:50;17.13;;;8.02;;
35126;SDS011;21300;52.006;5.798;2023-10-09T05:04:23;9.50;;;6.55;;
35126;SDS011;21300;52.006;5.798;2023-10-09T05:07:06;12.32;;;7.68;;
35126;SDS011;21300;52.006;5.798;2023-10-09T05:09:50;10.77;;;6.87;;
35126;SDS011;21300;52.006;5.798;2023-10-09T05:12:31;13.10;;;7.22;;
35126;SDS011;21300;52.006;5.798;2023-10-09T05:14:57;13.50;;;7.13;;
35126;SDS011;21300;52.006;5.798;2023-10-09T05:17:35;11.32;;;7.45;;
35126;SDS011;21300;52.006;5.798;2023-10-09T05:20:03;12.20;;;7.18;;
35126;SDS011;21300;52.006;5.798;2023-10-09T05:22:48;12.43;;;7.32;;
35126;SDS011;21300;52.006;5.798;2023-10-09T05:25:26;13.00;;;7.50;;
35126;SDS011;21300;52.006;5.798;2023-10-09T05:28:10;11.25;;;7.32;;
35126;SDS011;21300;52.006;5.798;2023-10-09T05:31:11;12.95;;;7.57;;
35126;SDS011;21300;52.006;5.798;2023-10-09T05:33:57;11.70;;;6.75;;
35126;SDS011;21300;52.006;5.798;2023-10-09T05:36:26;11.18;;;6.95;;
35126;SDS011;21300;52.006;5.798;2023-10-09T05:38:52;12.30;;;7.82;;
35126;SDS011;21300;52.006;5.798;2023-10-09T05:41:27;10.48;;;6.95;;
35126;SDS011;21300;52.006;5.798;2023-10-09T05:43:56;13.43;;;7.05;;
35126;SDS011;21300;52.006;5.798;2023-10-09T05:46:40;11.57;;;7.47;;
35126;SDS011;21300;52.006;5.798;2023-10-09T05:49:26;12.73;;;6.82;;
35126;SDS011;21300;52.006;5.798;2023-10-09T05:52:10;12.20;;;7.03;;
35126;SDS011;21300;52.006;5.798;2023-10-09T05:54:55;11.63;;;7.50;;
35126;SDS011;21300;52.006;5.798;2023-10-09T05:57:53;11.05;;;6.35;;
35126;SDS011;21300;52.006;5.798;2023-10-09T06:00:38;11.40;;;7.18;;
35126;SDS011;21300;52.006;5.798;2023-10-09T06:03:22;9.43;;;5.82;;
35126;SDS011;21300;52.006;5.798;2023-10-09T06:05:54;13.43;;;7.35;;
35126;SDS011;21300;52.006;5.798;2023-10-09T06:08:21;10.18;;;6.82;;
35126;SDS011;21300;52.006;5.798;2023-10-09T06:10:55;13.32;;;6.60;;
35126;SDS011;21300;52.006;5.798;2023-10-09T06:13:40;10.85;;;6.43;;
35126;SDS011;21300;52.006;5.798;2023-10-09T06:16:12;13.60;;;6.50;;
35126;SDS011;21300;52.006;5.798;2023-10-09T06:18:56;11.27;;;6.80;;
35126;SDS011;21300;52.006;5.798;2023-10-09T06:21:37;11.23;;;7.00;;
35126;SDS011;21300;52.006;5.798;2023-10-09T06:24:22;10.20;;;6.03;;
35126;SDS011;21300;52.006;5.798;2023-10-09T06:26:49;13.48;;;6.70;;
35126;SDS011;21300;52.006;5.798;2023-10-09T06:29:18;14.63;;;6.75;;
35126;SDS011;21300;52.006;5.798;2023-10-09T06:32:03;11.00;;;6.00;;
35126;SDS011;21300;52.006;5.798;2023-10-09T06:34:51;11.48;;;6.70;;
35126;SDS011;21300;52.006;5.798;2023-10-09T06:37:42;10.15;;;6.50;;
35126;SDS011;21300;52.006;5.798;2023-10-09T06:43:19;11.68;;;6.05;;
35126;SDS011;21300;52.006;5.798;2023-10-09T06:45:51;10.45;;;6.63;;
35126;SDS011;21300;52.006;5.798;2023-10-09T06:48:37;11.10;;;6.10;;
35126;SDS011;21300;52.006;5.798;2023-10-09T06:51:06;9.65;;;6.15;;
35126;SDS011;21300;52.006;5.798;2023-10-09T06:53:52;10.38;;;6.30;;
35126;SDS011;21300;52.006;5.798;2023-10-09T06:56:28;12.50;;;6.60;;
35126;SDS011;21300;52.006;5.798;2023-10-09T06:58:58;9.27;;;5.80;;
35126;SDS011;21300;52.006;5.798;2023-10-09T07:01:30;11.20;;;6.70;;
35126;SDS011;21300;52.006;5.798;2023-10-09T07:04:13;11.05;;;6.35;;
35126;SDS011;21300;52.006;5.798;2023-10-09T07:07:06;12.20;;;6.72;;
35126;SDS011;21300;52.006;5.798;2023-10-09T07:09:40;13.05;;;7.13;;
35126;SDS011;21300;52.006;5.798;2023-10-09T07:12:28;9.35;;;5.60;;
35126;SDS011;21300;52.006;5.798;2023-10-09T07:14:57;11.15;;;6.43;;
35126;SDS011;21300;52.006;5.798;2023-10-09T07:17:46;11.05;;;6.32;;
35126;SDS011;21300;52.006;5.798;2023-10-09T07:20:11;11.48;;;6.05;;
35126;SDS011;21300;52.006;5.798;2023-10-09T07:23:09;10.90;;;6.55;;
35126;SDS011;21300;52.006;5.798;2023-10-09T07:25:42;11.88;;;7.10;;
35126;SDS011;21300;52.006;5.798;2023-10-09T07:28:20;9.45;;;6.30;;
35126;SDS011;21300;52.006;5.798;2023-10-09T07:31:07;10.35;;;5.88;;
35126;SDS011;21300;52.006;5.798;2023-10-09T07:33:34;12.88;;;6.90;;
35126;SDS011;21300;52.006;5.798;2023-10-09T07:36:18;15.40;;;6.65;;
35126;SDS011;21300;52.006;5.798;2023-10-09T07:39:16;11.90;;;6.65;;
35126;SDS011;21300;52.006;5.798;2023-10-09T07:41:42;11.35;;;7.13;;
35126;SDS011;21300;52.006;5.798;2023-10-09T07:44:20;11.93;;;6.25;;
35126;SDS011;21300;52.006;5.798;2023-10-09T07:47:01;12.55;;;6.35;;
35126;SDS011;21300;52.006;5.798;2023-10-09T07:49:48;11.70;;;7.03;;
35126;SDS011;21300;52.006;5.798;2023-10-09T07:52:18;10.93;;;6.75;;
35126;SDS011;21300;52.006;5.798;2023-10-09T07:54:49;12.98;;;7.05;;
35126;SDS011;21300;52.006;5.798;2023-10-09T07:57:30;13.45;;;6.88;;
35126;SDS011;21300;52.006;5.798;2023-10-09T08:00:03;10.88;;;6.78;;
35126;SDS011;21300;52.006;5.798;2023-10-09T08:02:37;12.93;;;7.80;;
35126;SDS011;21300;52.006;5.798;2023-10-09T08:05:04;13.38;;;8.02;;
35126;SDS011;21300;52.006;5.798;2023-10-09T08:07:32;12.95;;;7.10;;
35126;SDS011;21300;52.006;5.798;2023-10-09T08:10:02;10.38;;;6.95;;
35126;SDS011;21300;52.006;5.798;2023-10-09T08:12:44;16.45;;;7.70;;
35126;SDS011;21300;52.006;5.798;2023-10-09T08:15:13;15.38;;;8.25;;
35126;SDS011;21300;52.006;5.798;2023-10-09T08:17:53;12.35;;;7.00;;
35126;SDS011;21300;52.006;5.798;2023-10-09T08:20:29;13.50;;;8.35;;
35126;SDS011;21300;52.006;5.798;2023-10-09T08:23:21;12.38;;;7.70;;
35126;SDS011;21300;52.006;5.798;2023-10-09T08:26:20;13.43;;;8.32;;
35126;SDS011;21300;52.006;5.798;2023-10-09T08:28:55;12.35;;;7.72;;
35126;SDS011;21300;52.006;5.798;2023-10-09T08:31:40;15.65;;;8.65;;
35126;SDS011;21300;52.006;5.798;2023-10-09T08:34:12;13.60;;;8.65;;
35126;SDS011;21300;52.006;5.798;2023-10-09T08:36:51;11.93;;;8.43;;
35126;SDS011;21300;52.006;5.798;2023-10-09T08:39:20;12.38;;;8.15;;
35126;SDS011;21300;52.006;5.798;2023-10-09T08:41:55;14.27;;;7.35;;
35126;SDS011;21300;52.006;5.798;2023-10-09T08:44:24;15.15;;;8.13;;
35126;SDS011;21300;52.006;5.798;2023-10-09T08:46:56;13.38;;;8.15;;
35126;SDS011;21300;52.006;5.798;2023-10-09T08:49:22;16.30;;;8.00;;
35126;SDS011;21300;52.006;5.798;2023-10-09T08:51:49;13.20;;;7.53;;
35126;SDS011;21300;52.006;5.798;2023-10-09T08:54:17;11.48;;;7.95;;
35126;SDS011;21300;52.006;5.798;2023-10-09T08:56:44;13.18;;;7.72;;
35126;SDS011;21300;52.006;5.798;2023-10-09T08:59:17;14.55;;;8.10;;
35126;SDS011;21300;52.006;5.798;2023-10-09T09:01:45;12.35;;;7.80;;
35126;SDS011;21300;52.006;5.798;2023-10-09T09:04:33;13.02;;;7.70;;
35126;SDS011;21300;52.006;5.798;2023-10-09T09:07:06;11.13;;;6.57;;
35126;SDS011;21300;52.006;5.798;2023-10-09T09:10:06;14.60;;;7.28;;
35126;SDS011;21300;52.006;5.798;2023-10-09T09:12:49;9.45;;;6.35;;
35126;SDS011;21300;52.006;5.798;2023-10-09T09:15:35;13.30;;;6.50;;
35126;SDS011;21300;52.006;5.798;2023-10-09T09:18:05;10.40;;;6.35;;
35126;SDS011;21300;52.006;5.798;2023-10-09T09:20:34;11.32;;;6.25;;
35126;SDS011;21300;52.006;5.798;2023-10-09T09:23:02;8.60;;;5.80;;
35126;SDS011;21300;52.006;5.798;2023-10-09T09:25:43;12.35;;;6.00;;
35126;SDS011;21300;52.006;5.798;2023-10-09T09:28:12;10.70;;;5.85;;
35126;SDS011;21300;52.006;5.798;2023-10-09T09:30:44;11.18;;;5.38;;
35126;SDS011;21300;52.006;5.798;2023-10-09T09:36:07;7.82;;;4.88;;
35126;SDS011;21300;52.006;5.798;2023-10-09T09:38:36;7.53;;;5.15;;
35126;SDS011;21300;52.006;5.798;2023-10-09T09:41:14;8.07;;;4.90;;
35126;SDS011;21300;52.006;5.798;2023-10-09T09:43:51;8.70;;;4.65;;
35126;SDS011;21300;52.006;5.798;2023-10-09T09:46:16;7.65;;;4.85;;
35126;SDS011;21300;52.006;5.798;2023-10-09T09:48:44;11.00;;;5.10;;
35126;SDS011;21300;52.006;5.798;2023-10-09T09:51:12;10.40;;;5.60;;
35126;SDS011;21300;52.006;5.798;2023-10-09T09:53:39;8.98;;;4.97;;
35126;SDS011;21300;52.006;5.798;2023-10-09T09:56:05;9.38;;;5.00;;
35126;SDS011;21300;52.006;5.798;2023-10-09T09:58:31;10.02;;;5.85;;
35126;SDS011;21300;52.006;5.798;2023-10-09T10:01:07;9.23;;;5.15;;
35126;SDS011;21300;52.006;5.798;2023-10-09T10:04:15;8.80;;;4.80;;
35126;SDS011;21300;52.006;5.798;2023-10-09T10:06:38;6.95;;;4.40;;
35126;SDS011;21300;52.006;5.798;2023-10-09T10:09:08;8.30;;;4.53;;
35126;SDS011;21300;52.006;5.798;2023-10-09T10:14:10;6.07;;;3.55;;
35126;SDS011;21300;52.006;5.798;2023-10-09T10:19:24;7.47;;;4.07;;
35126;SDS011;21300;52.006;5.798;2023-10-09T10:22:24;5.90;;;4.07;;
35126;SDS011;21300;52.006;5.798;2023-10-09T10:24:55;7.50;;;3.35;;
35126;SDS011;21300;52.006;5.798;2023-10-09T10:27:28;8.90;;;4.30;;
35126;SDS011;21300;52.006;5.798;2023-10-09T10:35:16;5.85;;;3.65;;
35126;SDS011;21300;52.006;5.798;2023-10-09T10:37:57;5.30;;;3.45;;
35126;SDS011;21300;52.006;5.798;2023-10-09T10:40:32;6.50;;;3.75;;
35126;SDS011;21300;52.006;5.798;2023-10-09T10:43:06;6.95;;;4.03;;
35126;SDS011;21300;52.006;5.798;2023-10-09T10:45:38;7.07;;;3.08;;
35126;SDS011;21300;52.006;5.798;2023-10-09T10:48:11;9.50;;;4.20;;
35126;SDS011;21300;52.006;5.798;2023-10-09T10:51:06;6.85;;;3.53;;
35126;SDS011;21300;52.006;5.798;2023-10-09T10:53:32;8.27;;;4.18;;
35126;SDS011;21300;52.006;5.798;2023-10-09T10:56:12;7.88;;;3.75;;
35126;SDS011;21300;52.006;5.798;2023-10-09T10:58:39;8.23;;;3.72;;
35126;SDS011;21300;52.006;5.798;2023-10-09T11:01:24;6.82;;;3.55;;
35126;SDS011;21300;52.006;5.798;2023-10-09T11:03:50;5.93;;;3.35;;
35126;SDS011;21300;52.006;5.798;2023-10-09T11:06:29;6.63;;;3.60;;
35126;SDS011;21300;52.006;5.798;2023-10-09T11:09:08;6.55;;;3.05;;
35126;SDS011;21300;52.006;5.798;2023-10-09T11:11:46;6.50;;;3.58;;
35126;SDS011;21300;52.006;5.798;2023-10-09T11:14:15;5.95;;;3.53;;
35126;SDS011;21300;52.006;5.798;2023-10-09T11:16:42;5.75;;;3.33;;
35126;SDS011;21300;52.006;5.798;2023-10-09T11:19:13;6.22;;;3.45;;
35126;SDS011;21300;52.006;5.798;2023-10-09T11:21:52;9.43;;;3.80;;
35126;SDS011;21300;52.006;5.798;2023-10-09T11:24:31;5.80;;;3.58;;
35126;SDS011;21300;52.006;5.798;2023-10-09T11:27:03;5.97;;;3.10;;
35126;SDS011;21300;52.006;5.798;2023-10-09T11:29:47;4.72;;;3.13;;
35126;SDS011;21300;52.006;5.798;2023-10-09T11:32:17;6.95;;;3.13;;
35126;SDS011;21300;52.006;5.798;2023-10-09T11:37:36;5.20;;;3.10;;
35126;SDS011;21300;52.006;5.798;2023-10-09T11:40:14;5.10;;;2.95;;
35126;SDS011;21300;52.006;5.798;2023-10-09T11:42:59;6.50;;;3.22;;
35126;SDS011;21300;52.006;5.798;2023-10-09T11:45:26;5.65;;;3.08;;
35126;SDS011;21300;52.006;5.798;2023-10-09T11:47:56;4.35;;;2.75;;
35126;SDS011;21300;52.006;5.798;2023-10-09T11:50:45;6.68;;;3.13;;
35126;SDS011;21300;52.006;5.798;2023-10-09T11:53:16;5.45;;;2.95;;
35126;SDS011;21300;52.006;5.798;2023-10-09T11:55:58;5.47;;;3.10;;
35126;SDS011;21300;52.006;5.798;2023-10-09T11:58:24;5.50;;;3.13;;
35126;SDS011;21300;52.006;5.798;2023-10-09T12:00:54;6.60;;;2.80;;
35126;SDS011;21300;52.006;5.798;2023-10-09T12:03:30;7.03;;;2.75;;
35126;SDS011;21300;52.006;5.798;2023-10-09T12:05:57;5.82;;;2.63;;
35126;SDS011;21300;52.006;5.798;2023-10-09T12:08:29;4.75;;;2.90;;
35126;SDS011;21300;52.006;5.798;2023-10-09T12:10:55;4.82;;;2.65;;
35126;SDS011;21300;52.006;5.798;2023-10-09T12:13:21;5.30;;;2.70;;
35126;SDS011;21300;52.006;5.798;2023-10-09T12:15:48;5.05;;;2.63;;
35126;SDS011;21300;52.006;5.798;2023-10-09T12:18:17;6.30;;;2.60;;
35126;SDS011;21300;52.006;5.798;2023-10-09T12:20:44;6.30;;;2.35;;
35126;SDS011;21300;52.006;5.798;2023-10-09T12:23:16;5.05;;;3.28;;
35126;SDS011;21300;52.006;5.798;2023-10-09T12:25:47;4.88;;;2.97;;
35126;SDS011;21300;52.006;5.798;2023-10-09T12:28:16;4.57;;;2.55;;
35126;SDS011;21300;52.006;5.798;2023-10-09T12:30:45;5.97;;;2.58;;
35126;SDS011;21300;52.006;5.798;2023-10-09T12:33:15;4.80;;;2.42;;
35126;SDS011;21300;52.006;5.798;2023-10-09T12:35:42;6.00;;;2.80;;
35126;SDS011;21300;52.006;5.798;2023-10-09T12:38:10;5.07;;;2.55;;
35126;SDS011;21300;52.006;5.798;2023-10-09T12:40:37;4.00;;;2.53;;
35126;SDS011;21300;52.006;5.798;2023-10-09T12:43:06;4.47;;;2.53;;
35126;SDS011;21300;52.006;5.798;2023-10-09T12:45:40;5.40;;;2.75;;
35126;SDS011;21300;52.006;5.798;2023-10-09T12:48:10;4.10;;;2.30;;
35126;SDS011;21300;52.006;5.798;2023-10-09T12:50:36;4.35;;;2.38;;
35126;SDS011;21300;52.006;5.798;2023-10-09T12:53:07;4.53;;;2.53;;
35126;SDS011;21300;52.006;5.798;2023-10-09T12:58:05;5.63;;;2.88;;
35126;SDS011;21300;52.006;5.798;2023-10-09T13:00:38;8.40;;;2.88;;
35126;SDS011;21300;52.006;5.798;2023-10-09T13:03:14;3.83;;;2.50;;
35126;SDS011;21300;52.006;5.798;2023-10-09T13:05:49;5.35;;;2.47;;
35126;SDS011;21300;52.006;5.798;2023-10-09T13:08:29;5.47;;;2.35;;
35126;SDS011;21300;52.006;5.798;2023-10-09T13:11:07;4.82;;;2.88;;
35126;SDS011;21300;52.006;5.798;2023-10-09T13:13:40;4.30;;;2.20;;
35126;SDS011;21300;52.006;5.798;2023-10-09T13:16:11;4.82;;;2.50;;
35126;SDS011;21300;52.006;5.798;2023-10-09T13:18:45;4.47;;;2.60;;
35126;SDS011;21300;52.006;5.798;2023-10-09T13:23:48;3.90;;;2.30;;
35126;SDS011;21300;52.006;5.798;2023-10-09T13:26:19;4.28;;;2.33;;
35126;SDS011;21300;52.006;5.798;2023-10-09T13:28:51;5.18;;;2.63;;
35126;SDS011;21300;52.006;5.798;2023-10-09T13:31:17;5.72;;;2.50;;
35126;SDS011;21300;52.006;5.798;2023-10-09T13:33:45;6.00;;;2.90;;
35126;SDS011;21300;52.006;5.798;2023-10-09T13:36:12;6.65;;;2.90;;
35126;SDS011;21300;52.006;5.798;2023-10-09T13:38:45;5.15;;;2.67;;
35126;SDS011;21300;52.006;5.798;2023-10-09T13:41:11;4.90;;;2.28;;
35126;SDS011;21300;52.006;5.798;2023-10-09T13:43:43;6.47;;;2.50;;
35126;SDS011;21300;52.006;5.798;2023-10-09T13:46:12;4.40;;;2.45;;
35126;SDS011;21300;52.006;5.798;2023-10-09T13:48:41;4.95;;;2.47;;
35126;SDS011;21300;52.006;5.798;2023-10-09T13:51:08;4.65;;;2.10;;
35126;SDS011;21300;52.006;5.798;2023-10-09T13:53:39;7.63;;;2.53;;
35126;SDS011;21300;52.006;5.798;2023-10-09T13:56:13;5.30;;;2.20;;
35126;SDS011;21300;52.006;5.798;2023-10-09T13:58:47;4.43;;;2.50;;
35126;SDS011;21300;52.006;5.798;2023-10-09T14:01:20;4.85;;;2.17;;
35126;SDS011;21300;52.006;5.798;2023-10-09T14:06:18;4.20;;;2.13;;
35126;SDS011;21300;52.006;5.798;2023-10-09T14:08:55;5.72;;;2.25;;
35126;SDS011;21300;52.006;5.798;2023-10-09T14:11:21;5.00;;;2.40;;
35126;SDS011;21300;52.006;5.798;2023-10-09T14:13:47;4.93;;;2.60;;
35126;SDS011;21300;52.006;5.798;2023-10-09T14:16:13;4.00;;;1.83;;
35126;SDS011;21300;52.006;5.798;2023-10-09T14:18:55;5.32;;;2.35;;
35126;SDS011;21300;52.006;5.798;2023-10-09T14:21:26;4.22;;;2.35;;
35126;SDS011;21300;52.006;5.798;2023-10-09T14:23:55;6.90;;;2.33;;
35126;SDS011;21300;52.006;5.798;2023-10-09T14:26:26;3.38;;;1.70;;
35126;SDS011;21300;52.006;5.798;2023-10-09T14:28:53;4.05;;;1.88;;
35126;SDS011;21300;52.006;5.798;2023-10-09T14:31:22;2.75;;;1.90;;
35126;SDS011;21300;52.006;5.798;2023-10-09T14:33:53;6.50;;;2.45;;
35126;SDS011;21300;52.006;5.798;2023-10-09T14:36:20;4.45;;;2.90;;
35126;SDS011;21300;52.006;5.798;2023-10-09T14:38:58;3.33;;;1.85;;
35126;SDS011;21300;52.006;5.798;2023-10-09T14:41:25;4.85;;;2.83;;
35126;SDS011;21300;52.006;5.798;2023-10-09T14:43:52;5.15;;;2.72;;
35126;SDS011;21300;52.006;5.798;2023-10-09T14:46:19;2.53;;;1.90;;
35126;SDS011;21300;52.006;5.798;2023-10-09T14:48:53;5.30;;;2.33;;
35126;SDS011;21300;52.006;5.798;2023-10-09T14:51:22;4.63;;;2.42;;
35126;SDS011;21300;52.006;5.798;2023-10-09T14:53:54;5.80;;;3.00;;
35126;SDS011;21300;52.006;5.798;2023-10-09T14:56:26;4.15;;;2.63;;
35126;SDS011;21300;52.006;5.798;2023-10-09T14:58:55;5.30;;;2.30;;
35126;SDS011;21300;52.006;5.798;2023-10-09T15:01:23;4.13;;;2.53;;
35126;SDS011;21300;52.006;5.798;2023-10-09T15:03:50;3.75;;;2.08;;
35126;SDS011;21300;52.006;5.798;2023-10-09T15:06:20;4.63;;;2.65;;
35126;SDS011;21300;52.006;5.798;2023-10-09T15:08:57;4.97;;;2.42;;
35126;SDS011;21300;52.006;5.798;2023-10-09T15:11:33;4.80;;;2.38;;
35126;SDS011;21300;52.006;5.798;2023-10-09T15:13:59;6.22;;;2.67;;
35126;SDS011;21300;52.006;5.798;2023-10-09T15:16:25;3.63;;;2.28;;
35126;SDS011;21300;52.006;5.798;2023-10-09T15:18:55;4.45;;;2.85;;
35126;SDS011;21300;52.006;5.798;2023-10-09T15:21:23;6.85;;;3.00;;
35126;SDS011;21300;52.006;5.798;2023-10-09T15:23:52;3.95;;;2.40;;
35126;SDS011;21300;52.006;5.798;2023-10-09T15:26:19;4.90;;;2.83;;
35126;SDS011;21300;52.006;5.798;2023-10-09T15:28:46;3.38;;;2.15;;
35126;SDS011;21300;52.006;5.798;2023-10-09T15:31:13;4.22;;;2.50;;
35126;SDS011;21300;52.006;5.798;2023-10-09T15:33:41;4.93;;;2.47;;
35126;SDS011;21300;52.006;5.798;2023-10-09T15:36:15;2.92;;;2.10;;
35126;SDS011;21300;52.006;5.798;2023-10-09T15:38:48;4.25;;;2.53;;
35126;SDS011;21300;52.006;5.798;2023-10-09T15:41:17;4.57;;;2.70;;
35126;SDS011;21300;52.006;5.798;2023-10-09T15:43:46;6.95;;;2.55;;
35126;SDS011;21300;52.006;5.798;2023-10-09T15:46:12;4.82;;;2.70;;